Time;durP1;ratioP1;P1;durP2;ratioP2;P2;SDS_P1;SDS_P2;PMS_P1;PMS_P2;Temp;Humidity;BMP_temperature;BMP_pressure;BME280_temperature;BME280_humidity;BME280_pressure;Samples;Min_cycle;Max_cycle;Signal;HPM_P1;HPM_P2
2023/10/26 00:01:12;;;;;;;0.93;0.93;;;12.30;99.90;;;;;;5012948;28;20060;-47
2023/10/26 00:03:38;;;;;;;1.00;1.00;;;12.30;99.90;;;;;;5012864;28;20117;-52
2023/10/26 00:06:04;;;;;;;0.77;0.77;;;12.20;99.90;;;;;;5011912;28;20069;-48
2023/10/26 00:08:29;;;;;;;0.77;0.73;;;12.20;99.90;;;;;;5012874;28;20034;-46
2023/10/26 00:10:55;;;;;;;2.50;1.10;;;12.10;99.90;;;;;;5012860;28;20029;-49
2023/10/26 00:13:21;;;;;;;0.80;0.80;;;12.10;99.90;;;;;;5012716;28;20486;-49
2023/10/26 00:15:46;;;;;;;0.60;0.60;;;12.00;99.90;;;;;;5012570;28;20037;-50
2023/10/26 00:18:13;;;;;;;0.60;0.60;;;12.00;99.90;;;;;;5012486;28;20922;-47
2023/10/26 00:20:38;;;;;;;3.92;0.70;;;12.00;99.90;;;;;;5011457;28;20449;-47
2023/10/26 00:23:05;;;;;;;0.90;0.90;;;12.10;99.90;;;;;;5012627;28;20030;-50
2023/10/26 00:25:31;;;;;;;0.80;0.80;;;12.20;99.90;;;;;;5012464;28;20037;-52
2023/10/26 00:28:03;;;;;;;;;;;12.20;99.90;;;;;;5005896;28;20387;-50
2023/10/26 00:30:28;;;;;;;1.65;0.65;;;12.20;99.90;;;;;;5005828;28;19910;-47
2023/10/26 00:32:54;;;;;;;0.88;0.73;;;12.20;99.90;;;;;;5004365;28;20443;-47
2023/10/26 00:35:19;;;;;;;1.10;0.98;;;12.30;99.90;;;;;;5005763;28;20018;-50
2023/10/26 00:37:45;;;;;;;1.25;0.70;;;12.20;99.90;;;;;;5004301;28;20030;-48
2023/10/26 00:40:11;;;;;;;2.33;0.90;;;12.30;99.90;;;;;;5004426;28;20030;-48
2023/10/26 00:42:38;;;;;;;1.17;0.90;;;12.30;99.90;;;;;;5005397;28;20022;-52
2023/10/26 00:45:04;;;;;;;2.75;1.00;;;12.20;99.90;;;;;;5005342;28;20037;-50
2023/10/26 00:47:31;;;;;;;0.80;0.70;;;12.20;99.90;;;;;;5005358;28;20041;-48
2023/10/26 00:49:58;;;;;;;0.90;0.90;;;12.20;99.90;;;;;;5005446;28;20087;-50
2023/10/26 00:52:23;;;;;;;2.30;1.00;;;12.20;99.90;;;;;;5005482;28;20144;-47
2023/10/26 00:54:50;;;;;;;1.00;1.00;;;12.20;99.90;;;;;;5004954;28;20050;-50
2023/10/26 00:57:17;;;;;;;0.90;0.90;;;12.20;99.90;;;;;;5005339;28;20065;-47
2023/10/26 00:59:45;;;;;;;2.65;1.05;;;12.20;99.90;;;;;;5005153;28;20397;-48
2023/10/26 01:02:13;;;;;;;1.23;1.20;;;12.20;99.90;;;;;;5005225;28;20095;-51
2023/10/26 01:04:39;;;;;;;1.38;1.15;;;12.20;99.90;;;;;;5003983;28;20026;-49
2023/10/26 01:07:05;;;;;;;2.83;1.15;;;12.20;99.90;;;;;;5005090;28;20212;-51
2023/10/26 01:09:30;;;;;;;1.60;0.95;;;12.20;99.90;;;;;;5004905;28;20022;-48
2023/10/26 01:11:56;;;;;;;0.90;0.90;;;12.10;99.90;;;;;;5005206;28;20533;-47
2023/10/26 01:14:21;;;;;;;1.10;1.00;;;12.10;99.90;;;;;;5004782;28;20097;-47
2023/10/26 01:16:47;;;;;;;3.60;1.15;;;12.10;99.90;;;;;;5005023;28;20064;-52
2023/10/26 01:19:12;;;;;;;3.60;1.20;;;12.10;99.90;;;;;;5004827;28;20048;-47
2023/10/26 01:21:51;;;;;;;1.90;1.48;;;12.10;99.90;;;;;;5004963;28;20034;-48
2023/10/26 01:24:17;;;;;;;1.17;1.17;;;12.10;99.90;;;;;;5004769;28;20485;-47
2023/10/26 01:26:43;;;;;;;3.22;1.38;;;12.00;99.90;;;;;;5004703;28;20109;-47
2023/10/26 01:29:09;;;;;;;3.05;2.00;;;12.00;99.90;;;;;;5003387;28;20101;-47
2023/10/26 01:31:34;;;;;;;2.10;1.80;;;12.10;99.90;;;;;;5004922;28;20029;-48
2023/10/26 01:34:00;;;;;;;1.52;1.42;;;12.10;99.90;;;;;;5004736;28;20026;-50
2023/10/26 01:36:25;;;;;;;1.30;1.20;;;12.00;99.90;;;;;;5004621;28;20030;-50
2023/10/26 01:38:51;;;;;;;1.40;1.30;;;12.10;99.90;;;;;;4994695;28;20121;-46
2023/10/26 01:41:16;;;;;;;1.25;1.23;;;12.10;99.90;;;;;;4990538;28;20087;-45
2023/10/26 01:43:42;;;;;;;1.73;1.55;;;12.10;99.90;;;;;;4991473;28;20034;-47
2023/10/26 01:46:08;;;;;;;1.25;1.25;;;12.10;99.90;;;;;;4991359;28;20079;-50
2023/10/26 01:48:33;;;;;;;3.08;1.30;;;12.20;99.90;;;;;;4990241;28;20023;-50
2023/10/26 01:50:59;;;;;;;2.30;1.40;;;12.10;99.90;;;;;;4991555;28;20026;-50
2023/10/26 01:53:26;;;;;;;3.80;1.00;;;12.10;99.90;;;;;;4991441;28;20022;-50
2023/10/26 01:55:51;;;;;;;5.15;1.30;;;12.10;99.90;;;;;;4991345;28;20022;-47
2023/10/26 01:58:17;;;;;;;3.03;1.40;;;12.10;99.90;;;;;;4990033;28;20022;-46
2023/10/26 02:00:43;;;;;;;1.48;1.30;;;12.00;99.90;;;;;;4991439;28;20045;-48
2023/10/26 02:03:08;;;;;;;1.35;1.27;;;12.00;99.90;;;;;;4991297;28;20048;-56
2023/10/26 02:05:34;;;;;;;1.70;1.38;;;11.90;99.90;;;;;;4991295;28;20405;-48
2023/10/26 02:07:59;;;;;;;1.05;1.05;;;12.00;99.90;;;;;;4991270;28;20042;-50
2023/10/26 02:10:29;;;;;;;1.40;1.40;;;11.90;99.90;;;;;;4991410;28;20113;-50
2023/10/26 02:12:55;;;;;;;1.40;1.30;;;11.90;99.90;;;;;;4991269;28;20018;-47
2023/10/26 02:15:21;;;;;;;1.70;1.50;;;11.90;99.90;;;;;;4991048;28;20079;-50
2023/10/26 02:17:47;;;;;;;1.80;1.70;;;11.90;99.90;;;;;;4990869;28;20030;-51
2023/10/26 02:20:12;;;;;;;1.85;1.75;;;11.90;99.90;;;;;;4991309;28;20103;-47
2023/10/26 02:22:38;;;;;;;2.72;1.90;;;11.90;99.90;;;;;;4991264;28;20109;-48
2023/10/26 02:25:04;;;;;;;1.65;1.50;;;11.90;99.90;;;;;;4990992;28;20077;-51
2023/10/26 02:27:31;;;;;;;2.20;1.88;;;11.90;99.90;;;;;;4990703;28;20057;-47
2023/10/26 02:29:56;;;;;;;2.13;1.70;;;11.90;99.90;;;;;;4990874;28;20023;-48
2023/10/26 02:32:22;;;;;;;1.73;1.63;;;12.00;99.90;;;;;;4990741;28;20033;-50
2023/10/26 02:34:47;;;;;;;3.85;1.35;;;12.00;99.90;;;;;;4990768;28;20105;-53
2023/10/26 02:37:13;;;;;;;2.10;1.70;;;12.00;99.90;;;;;;4990909;28;20026;-46
2023/10/26 02:39:38;;;;;;;2.28;1.63;;;12.00;99.90;;;;;;4989325;28;20370;-50
2023/10/26 02:42:04;;;;;;;1.70;1.58;;;12.00;99.90;;;;;;4990837;28;20496;-54
2023/10/26 02:44:29;;;;;;;4.20;1.60;;;12.00;99.90;;;;;;4990458;28;20034;-51
2023/10/26 02:46:55;;;;;;;2.22;1.60;;;12.00;99.90;;;;;;4990598;28;20041;-47
2023/10/26 02:49:20;;;;;;;3.28;1.73;;;12.00;99.90;;;;;;4989853;28;20374;-48
2023/10/26 02:51:46;;;;;;;1.30;1.20;;;12.00;99.90;;;;;;4990447;28;20019;-51
2023/10/26 02:54:11;;;;;;;3.22;1.50;;;11.90;99.90;;;;;;4990468;28;20350;-47
2023/10/26 02:56:37;;;;;;;1.08;1.08;;;11.90;99.90;;;;;;4990237;28;20069;-47
2023/10/26 02:59:03;;;;;;;1.67;1.13;;;11.90;99.90;;;;;;4990121;28;20077;-48
2023/10/26 03:01:37;;;;;;;1.40;1.40;;;11.90;99.90;;;;;;4990543;28;20114;-47
2023/10/26 03:04:03;;;;;;;1.58;1.25;;;12.00;99.90;;;;;;4990323;28;20030;-50
2023/10/26 03:06:29;;;;;;;2.15;1.42;;;11.90;99.90;;;;;;4990094;28;20053;-49
2023/10/26 03:08:54;;;;;;;1.30;1.30;;;11.90;99.90;;;;;;4990237;28;20041;-48
2023/10/26 03:11:20;;;;;;;1.80;1.70;;;11.80;99.90;;;;;;4990862;28;20033;-47
2023/10/26 03:13:45;;;;;;;1.67;1.60;;;11.90;99.90;;;;;;4990924;28;20091;-48
2023/10/26 03:16:11;;;;;;;4.22;1.95;;;11.90;99.90;;;;;;4990159;28;20053;-52
2023/10/26 03:18:37;;;;;;;2.10;2.00;;;11.90;99.90;;;;;;4989973;28;20034;-50
2023/10/26 03:21:04;;;;;;;2.00;1.90;;;11.80;99.90;;;;;;4990315;28;20439;-46
2023/10/26 03:23:29;;;;;;;3.72;2.60;;;11.90;99.90;;;;;;4989989;28;20041;-50
2023/10/26 03:25:55;;;;;;;2.08;1.98;;;11.90;99.90;;;;;;4989752;28;20390;-48
2023/10/26 03:28:20;;;;;;;2.80;2.65;;;11.80;99.90;;;;;;4989808;28;20026;-50
2023/10/26 03:30:46;;;;;;;2.35;2.15;;;11.90;99.90;;;;;;4988703;28;20109;-51
2023/10/26 03:33:12;;;;;;;3.78;2.20;;;11.90;99.90;;;;;;4990029;28;20379;-51
2023/10/26 03:35:37;;;;;;;3.50;2.63;;;11.90;99.90;;;;;;4989887;28;20069;-48
2023/10/26 03:38:03;;;;;;;2.40;2.30;;;11.90;99.90;;;;;;4989686;28;20026;-51
2023/10/26 03:40:28;;;;;;;5.30;2.40;;;11.90;99.90;;;;;;4990000;28;20033;-50
2023/10/26 03:42:54;;;;;;;2.42;2.17;;;12.00;99.90;;;;;;4990113;28;20037;-46
2023/10/26 03:45:19;;;;;;;1.75;1.65;;;12.00;99.90;;;;;;4989663;28;20049;-47
2023/10/26 03:47:45;;;;;;;2.00;1.90;;;12.00;99.90;;;;;;4988239;28;20023;-47
2023/10/26 03:50:11;;;;;;;1.90;1.80;;;12.00;99.90;;;;;;4989720;28;20033;-47
2023/10/26 03:52:36;;;;;;;2.45;2.15;;;11.90;99.90;;;;;;4990075;28;20022;-50
2023/10/26 03:55:02;;;;;;;2.05;1.95;;;11.80;99.90;;;;;;4989588;28;20113;-46
2023/10/26 03:57:28;;;;;;;1.80;1.70;;;11.70;99.90;;;;;;4995213;23;20141;-51
2023/10/26 03:59:53;;;;;;;2.47;2.03;;;11.60;99.90;;;;;;4970060;28;20558;-50
2023/10/26 04:02:19;;;;;;;2.20;2.10;;;11.50;99.90;;;;;;4984354;28;20402;-49
2023/10/26 04:04:44;;;;;;;2.00;1.90;;;11.40;99.90;;;;;;4968657;28;20069;-47
2023/10/26 04:07:10;;;;;;;2.10;2.00;;;11.30;99.90;;;;;;4980238;28;20489;-47
2023/10/26 04:09:35;;;;;;;2.20;2.10;;;11.20;99.90;;;;;;4989101;28;20030;-48
2023/10/26 04:12:01;;;;;;;3.08;2.60;;;11.20;99.90;;;;;;4988070;28;20023;-52
2023/10/26 04:14:26;;;;;;;1.83;1.73;;;11.10;99.90;;;;;;4989517;28;20486;-54
2023/10/26 04:16:52;;;;;;;1.88;1.77;;;11.00;99.90;;;;;;4989409;28;20034;-51
2023/10/26 04:19:18;;;;;;;1.77;1.67;;;11.00;99.90;;;;;;4989376;28;20075;-53
2023/10/26 04:21:44;;;;;;;1.95;1.85;;;11.00;99.90;;;;;;4989582;28;20037;-54
2023/10/26 04:24:10;;;;;;;1.98;1.88;;;11.00;99.90;;;;;;4989554;28;20374;-52
2023/10/26 04:26:35;;;;;;;2.17;2.08;;;11.10;99.90;;;;;;4989319;28;20031;-55
2023/10/26 04:29:01;;;;;;;3.60;1.80;;;10.90;99.90;;;;;;4989255;28;20034;-49
2023/10/26 04:31:26;;;;;;;1.83;1.73;;;10.90;99.90;;;;;;4989412;28;20023;-49
2023/10/26 04:33:52;;;;;;;3.30;2.00;;;10.80;99.90;;;;;;4989898;28;20106;-51
2023/10/26 04:36:21;;;;;;;2.85;1.35;;;10.80;99.90;;;;;;4989596;28;20130;-54
2023/10/26 04:38:46;;;;;;;3.33;1.50;;;10.90;99.90;;;;;;4989809;28;20022;-51
2023/10/26 04:41:12;;;;;;;1.83;1.73;;;10.90;99.90;;;;;;4989410;28;20076;-52
2023/10/26 04:43:37;;;;;;;2.85;1.67;;;11.00;99.90;;;;;;4989228;28;20022;-51
2023/10/26 04:46:03;;;;;;;16.27;1.92;;;11.00;99.90;;;;;;4987610;28;20033;-52
2023/10/26 04:48:29;;;;;;;1.50;1.40;;;11.00;99.90;;;;;;4989016;28;20106;-52
2023/10/26 04:50:55;;;;;;;2.53;1.52;;;11.00;99.90;;;;;;4989639;28;20023;-48
2023/10/26 04:53:21;;;;;;;3.10;1.50;;;11.00;99.90;;;;;;4987585;28;20416;-48
2023/10/26 04:55:46;;;;;;;1.48;1.40;;;11.00;99.90;;;;;;4988673;28;20019;-48
2023/10/26 04:58:12;;;;;;;2.55;1.92;;;10.90;99.90;;;;;;4988871;28;20052;-48
2023/10/26 05:00:37;;;;;;;3.38;1.60;;;10.90;99.90;;;;;;4988872;28;20486;-47
2023/10/26 05:03:03;;;;;;;5.10;2.03;;;10.90;99.90;;;;;;4987630;28;20046;-49
2023/10/26 05:05:28;;;;;;;1.80;1.70;;;10.90;99.90;;;;;;4989221;28;20034;-50
2023/10/26 05:07:54;;;;;;;1.55;1.45;;;10.90;99.90;;;;;;4988829;28;20087;-50
2023/10/26 05:10:20;;;;;;;1.90;1.80;;;10.80;99.90;;;;;;4989217;28;20033;-49
2023/10/26 05:12:46;;;;;;;1.75;1.65;;;10.80;99.90;;;;;;4989412;28;20022;-49
2023/10/26 05:15:11;;;;;;;1.60;1.50;;;10.90;99.90;;;;;;4992330;28;20096;-52
2023/10/26 05:17:38;;;;;;;3.45;1.55;;;10.90;99.90;;;;;;4990873;28;20026;-51
2023/10/26 05:20:04;;;;;;;2.13;1.55;;;10.80;99.90;;;;;;4992234;28;20041;-51
2023/10/26 05:22:32;;;;;;;2.17;1.73;;;10.80;99.90;;;;;;4990673;28;20125;-53
2023/10/26 05:24:59;;;;;;;3.42;1.67;;;10.90;99.90;;;;;;4992066;28;20018;-51
2023/10/26 05:27:25;;;;;;;1.60;1.50;;;10.90;99.90;;;;;;4992392;28;20026;-49
2023/10/26 05:29:50;;;;;;;2.00;1.90;;;10.90;99.90;;;;;;4992076;28;20023;-48
2023/10/26 05:32:16;;;;;;;2.65;1.60;;;10.90;99.90;;;;;;4991971;28;20022;-48
2023/10/26 05:34:41;;;;;;;1.63;1.52;;;10.90;99.90;;;;;;4991979;28;20030;-48
2023/10/26 05:37:07;;;;;;;3.03;1.40;;;10.90;99.90;;;;;;4991752;28;20113;-49
2023/10/26 05:39:32;;;;;;;9.18;1.60;;;10.90;99.90;;;;;;4991581;28;20102;-49
2023/10/26 05:41:58;;;;;;;1.77;1.30;;;10.90;99.90;;;;;;4990652;28;20029;-52
2023/10/26 05:44:25;;;;;;;4.68;1.83;;;10.90;99.90;;;;;;4991765;28;20494;-50
2023/10/26 05:46:50;;;;;;;1.50;1.40;;;10.90;99.90;;;;;;4991606;28;20117;-51
2023/10/26 05:49:16;;;;;;;2.17;1.30;;;10.90;99.90;;;;;;4991624;28;20089;-52
2023/10/26 05:51:41;;;;;;;2.15;1.27;;;10.90;99.90;;;;;;4991886;28;20038;-49
2023/10/26 05:54:07;;;;;;;3.05;1.30;;;10.90;99.90;;;;;;4991808;28;20077;-50
2023/10/26 05:56:32;;;;;;;1.67;1.55;;;10.80;99.90;;;;;;4991272;28;20046;-52
2023/10/26 05:58:58;;;;;;;1.55;1.42;;;10.90;99.90;;;;;;4990564;28;20027;-52
2023/10/26 06:01:23;;;;;;;5.72;1.33;;;10.90;99.90;;;;;;4991861;28;20080;-52
2023/10/26 06:03:49;;;;;;;2.10;1.90;;;10.90;99.90;;;;;;4990361;28;20076;-52
2023/10/26 06:06:15;;;;;;;1.30;1.23;;;10.90;99.90;;;;;;4991316;28;20031;-52
2023/10/26 06:08:40;;;;;;;1.73;1.60;;;10.90;99.90;;;;;;4991238;28;20050;-52
2023/10/26 06:11:06;;;;;;;3.15;1.67;;;10.90;99.90;;;;;;4990278;28;20117;-52
2023/10/26 06:13:31;;;;;;;2.40;2.13;;;10.90;99.90;;;;;;4991392;28;20439;-53
2023/10/26 06:15:57;;;;;;;1.80;1.70;;;10.90;99.90;;;;;;4991408;28;20139;-51
2023/10/26 06:18:22;;;;;;;1.50;1.40;;;11.10;99.90;;;;;;4990142;28;20023;-49
2023/10/26 06:20:57;;;;;;;1.40;1.30;;;11.10;99.90;;;;;;4991444;28;20030;-54
2023/10/26 06:23:22;;;;;;;2.07;1.50;;;11.10;99.90;;;;;;4991177;28;20057;-51
2023/10/26 06:25:48;;;;;;;1.60;1.52;;;11.10;99.90;;;;;;4990749;28;20050;-51
2023/10/26 06:28:13;;;;;;;1.90;1.80;;;11.00;99.90;;;;;;4989836;28;20029;-49
2023/10/26 06:30:39;;;;;;;2.53;1.63;;;11.00;99.90;;;;;;4991310;28;20022;-51
2023/10/26 06:33:04;;;;;;;1.30;1.15;;;11.00;99.90;;;;;;4991122;28;20027;-53
2023/10/26 06:35:30;;;;;;;2.65;1.42;;;11.10;99.90;;;;;;4991198;28;20022;-49
2023/10/26 06:37:55;;;;;;;1.20;1.13;;;11.00;99.90;;;;;;4990960;28;20026;-54
2023/10/26 06:40:21;;;;;;;1.52;1.42;;;11.10;99.90;;;;;;4991099;28;20030;-53
2023/10/26 06:42:46;;;;;;;2.67;1.10;;;11.10;99.90;;;;;;4990947;28;20076;-51
2023/10/26 06:45:12;;;;;;;1.80;1.23;;;11.10;99.90;;;;;;4990888;28;20022;-54
2023/10/26 06:47:38;;;;;;;1.30;1.20;;;11.10;99.90;;;;;;4990509;28;20030;-50
2023/10/26 06:50:06;;;;;;;1.75;1.17;;;11.20;99.90;;;;;;4989467;28;20051;-51
2023/10/26 06:52:31;;;;;;;3.33;1.05;;;11.20;99.90;;;;;;4977470;28;20066;-53
2023/10/26 06:54:58;;;;;;;0.95;0.93;;;11.20;99.90;;;;;;4989657;28;20446;-49
2023/10/26 06:57:23;;;;;;;1.10;1.10;;;11.30;99.90;;;;;;4982557;28;20452;-53
2023/10/26 06:59:49;;;;;;;1.17;1.00;;;11.20;99.90;;;;;;4971143;28;20023;-53
2023/10/26 07:02:14;;;;;;;2.35;1.50;;;11.30;99.90;;;;;;4970113;28;20155;-51
2023/10/26 07:04:40;;;;;;;1.50;1.40;;;11.30;99.90;;;;;;4981316;28;20490;-50
2023/10/26 07:07:06;;;;;;;1.40;1.30;;;11.30;99.90;;;;;;4990237;28;20076;-54
2023/10/26 07:09:31;;;;;;;1.17;1.17;;;11.40;99.90;;;;;;4988953;28;20023;-55
2023/10/26 07:11:57;;;;;;;1.55;1.45;;;11.40;99.90;;;;;;4969832;28;20015;-51
2023/10/26 07:14:22;;;;;;;1.27;1.25;;;11.40;99.90;;;;;;4971286;28;20394;-51
2023/10/26 07:16:48;;;;;;;1.85;1.38;;;11.40;99.90;;;;;;4970992;28;20073;-54
2023/10/26 07:19:13;;;;;;;2.85;1.38;;;11.50;99.90;;;;;;4971061;28;20079;-50
2023/10/26 07:21:39;;;;;;;1.60;1.55;;;11.50;99.90;;;;;;4971145;28;20027;-52
2023/10/26 07:24:05;;;;;;;1.52;1.27;;;11.60;99.90;;;;;;4990202;28;20049;-54
2023/10/26 07:26:32;;;;;;;1.23;1.23;;;11.70;99.90;;;;;;4988798;28;20034;-52
2023/10/26 07:28:58;;;;;;;1.60;1.50;;;11.80;99.90;;;;;;4990085;28;20021;-50
2023/10/26 07:31:23;;;;;;;2.55;2.35;;;11.90;99.90;;;;;;4973039;28;20026;-50
2023/10/26 07:33:49;;;;;;;1.60;1.50;;;11.90;99.90;;;;;;4989961;28;20422;-49
2023/10/26 07:36:15;;;;;;;1.85;1.75;;;12.00;99.90;;;;;;4989159;28;20026;-51
2023/10/26 07:38:41;;;;;;;2.75;1.83;;;12.00;99.90;;;;;;4989710;28;20508;-53
2023/10/26 07:41:07;;;;;;;1.83;1.73;;;12.00;99.90;;;;;;4989527;28;20057;-54
2023/10/26 07:43:34;;;;;;;2.40;1.70;;;12.00;99.90;;;;;;4989615;28;20019;-51
2023/10/26 07:45:59;;;;;;;2.05;1.95;;;12.00;99.90;;;;;;4989614;28;20026;-53
2023/10/26 07:48:25;;;;;;;2.22;1.80;;;12.00;99.90;;;;;;4989844;28;20071;-55
2023/10/26 07:50:51;;;;;;;1.63;1.52;;;12.10;99.90;;;;;;4988699;28;20030;-51
2023/10/26 07:53:17;;;;;;;3.13;1.80;;;12.10;99.90;;;;;;4990068;28;20022;-53
2023/10/26 07:55:43;;;;;;;1.40;1.40;;;12.20;99.90;;;;;;4989293;28;20084;-49
2023/10/26 07:58:09;;;;;;;1.70;1.60;;;12.20;99.90;;;;;;4989286;28;20041;-55
2023/10/26 08:00:37;;;;;;;4.30;1.83;;;12.20;99.90;;;;;;4987861;28;20036;-49
2023/10/26 08:03:02;;;;;;;1.38;1.38;;;12.30;99.90;;;;;;4988668;28;20399;-47
2023/10/26 08:05:29;;;;;;;1.60;1.50;;;12.30;99.90;;;;;;4988630;28;20101;-49
2023/10/26 08:07:54;;;;;;;1.73;1.67;;;12.20;99.90;;;;;;4988442;28;20026;-51
2023/10/26 08:10:20;;;;;;;5.97;2.05;;;12.20;99.90;;;;;;4987018;28;20159;-49
2023/10/26 08:12:45;;;;;;;1.60;1.50;;;12.20;99.90;;;;;;4988326;28;20026;-48
2023/10/26 08:15:11;;;;;;;2.63;1.98;;;12.30;99.90;;;;;;4988669;28;20026;-50
2023/10/26 08:17:36;;;;;;;1.60;1.50;;;12.30;99.90;;;;;;4988656;28;20390;-49
2023/10/26 08:20:04;;;;;;;1.98;1.80;;;12.30;99.90;;;;;;4989484;28;20038;-49
2023/10/26 08:22:31;;;;;;;3.30;1.77;;;12.40;99.90;;;;;;4989634;28;20026;-51
2023/10/26 08:24:56;;;;;;;1.90;1.65;;;12.40;99.90;;;;;;4989699;28;20054;-52
2023/10/26 08:27:23;;;;;;;2.42;1.70;;;12.40;99.90;;;;;;4989816;28;20493;-48
2023/10/26 08:29:50;;;;;;;1.38;1.27;;;12.40;99.90;;;;;;4990551;28;20481;-54
2023/10/26 08:32:15;;;;;;;1.75;1.65;;;12.40;99.90;;;;;;4991271;28;20046;-53
2023/10/26 08:34:41;;;;;;;3.38;1.33;;;12.40;99.90;;;;;;4991490;28;20030;-54
2023/10/26 08:37:07;;;;;;;3.22;1.40;;;12.40;99.90;;;;;;4990512;28;20022;-53
2023/10/26 08:39:32;;;;;;;2.05;1.40;;;12.50;99.90;;;;;;5016462;28;20082;-48
2023/10/26 08:42:01;;;;;;;1.05;1.05;;;12.50;99.90;;;;;;5004798;28;20034;-47
2023/10/26 08:44:28;;;;;;;1.10;1.00;;;12.50;99.90;;;;;;4982546;28;20027;-52
2023/10/26 08:47:05;;;;;;;1.02;0.98;;;12.40;99.90;;;;;;4988868;28;20122;-49
2023/10/26 08:49:32;;;;;;;2.35;1.15;;;12.50;99.90;;;;;;4989649;28;20168;-54
2023/10/26 08:51:59;;;;;;;2.40;1.23;;;12.70;99.90;;;;;;4990349;28;20053;-52
2023/10/26 08:54:26;;;;;;;1.50;1.10;;;13.00;99.90;;;;;;4991687;28;20023;-50
2023/10/26 08:56:52;;;;;;;3.33;0.90;;;13.40;99.90;;;;;;4991876;28;20038;-50
2023/10/26 08:59:17;;;;;;;1.80;1.02;;;13.60;99.90;;;;;;4991926;28;20068;-49
2023/10/26 09:01:46;;;;;;;4.65;0.93;;;13.80;99.90;;;;;;5027570;28;20437;-54
2023/10/26 09:04:12;;;;;;;2.40;1.10;;;13.70;99.90;;;;;;5000724;28;20058;-52
2023/10/26 09:06:48;;;;;;;1.75;0.98;;;13.70;99.90;;;;;;4987876;28;20031;-54
2023/10/26 09:09:15;;;;;;;2.47;0.70;;;13.60;99.90;;;;;;4972143;28;20072;-54
2023/10/26 09:11:42;;;;;;;1.95;0.85;;;13.40;99.90;;;;;;4973208;28;20371;-54
2023/10/26 09:14:16;;;;;;;0.93;0.70;;;13.30;99.90;;;;;;4973304;28;20076;-49
2023/10/26 09:16:46;;;;;;;1.60;1.00;;;13.30;99.90;;;;;;4972967;28;20026;-52
2023/10/26 09:19:12;;;;;;;1.33;1.00;;;13.30;99.90;;;;;;4980740;28;20037;-49
2023/10/26 09:21:56;;;;;;;1.48;1.02;;;13.30;99.90;;;;;;4992385;28;20038;-49
2023/10/26 09:24:27;;;;;;;1.20;1.10;;;13.30;99.90;;;;;;5090485;28;20479;-48
2023/10/26 09:26:54;;;;;;;1.13;1.02;;;13.20;99.90;;;;;;5095201;28;20544;-54
2023/10/26 09:29:21;;;;;;;1.52;1.10;;;13.10;99.90;;;;;;5095101;28;20364;-49
2023/10/26 09:31:56;;;;;;;1.58;1.25;;;13.00;99.90;;;;;;5095183;28;20040;-53
2023/10/26 09:34:22;;;;;;;;;;;13.00;99.90;;;;;;4999237;28;20031;-54
2023/10/26 09:37:02;;;;;;;1.00;1.00;;;13.00;99.90;;;;;;4991964;28;19910;-51
2023/10/26 09:39:31;;;;;;;1.52;1.42;;;12.90;99.90;;;;;;4992137;28;20031;-51
2023/10/26 09:42:01;;;;;;;2.60;1.00;;;12.80;99.90;;;;;;4991029;28;20030;-53
2023/10/26 09:44:27;;;;;;;1.30;1.20;;;12.80;99.90;;;;;;4992375;28;20025;-48
2023/10/26 09:46:53;;;;;;;2.53;1.35;;;12.90;99.90;;;;;;4992093;28;20034;-49
2023/10/26 09:49:20;;;;;;;1.42;1.20;;;12.80;99.90;;;;;;4991696;28;20033;-48
2023/10/26 09:51:46;;;;;;;1.00;1.00;;;12.80;99.90;;;;;;4991976;28;20407;-50
2023/10/26 09:54:13;;;;;;;2.67;1.13;;;12.80;99.90;;;;;;4991941;28;20037;-48
2023/10/26 09:56:41;;;;;;;2.63;1.10;;;12.70;99.90;;;;;;5002278;23;20038;-47
2023/10/26 09:59:07;;;;;;;3.72;1.40;;;12.70;99.90;;;;;;5010250;28;20116;-47
2023/10/26 10:01:40;;;;;;;1.30;1.20;;;12.70;99.90;;;;;;5011062;28;20037;-48
2023/10/26 10:04:08;;;;;;;1.40;1.00;;;12.70;99.90;;;;;;5010860;28;20159;-47
2023/10/26 10:07:00;;;;;;;1.52;0.90;;;12.70;99.90;;;;;;5010830;28;20030;-50
2023/10/26 10:09:27;;;;;;;1.00;1.00;;;12.80;99.90;;;;;;5016617;28;20363;-49
2023/10/26 10:12:16;;;;;;;1.45;1.15;;;12.80;99.90;;;;;;5010815;28;20030;-50
2023/10/26 10:14:47;;;;;;;2.08;1.00;;;12.90;99.90;;;;;;5009570;28;20018;-48
2023/10/26 10:17:17;;;;;;;0.98;0.98;;;12.90;99.90;;;;;;5010631;28;20113;-49
2023/10/26 10:19:46;;;;;;;1.77;1.02;;;12.80;99.90;;;;;;5010556;28;20056;-51
2023/10/26 10:22:46;;;;;;;0.80;0.80;;;12.80;99.90;;;;;;5010435;28;20029;-46
2023/10/26 10:25:13;;;;;;;1.77;0.90;;;12.80;99.90;;;;;;5010616;28;20112;-47
2023/10/26 10:27:46;;;;;;;5.05;1.38;;;12.90;99.90;;;;;;5010038;28;20030;-54
2023/10/26 10:30:11;;;;;;;1.25;1.10;;;13.00;99.90;;;;;;5010440;28;20026;-51
2023/10/26 10:32:53;;;;;;;1.50;1.25;;;12.90;99.90;;;;;;5010449;28;20481;-46
2023/10/26 10:35:21;;;;;;;4.88;1.40;;;13.00;99.90;;;;;;5011209;28;20025;-50
2023/10/26 10:38:12;;;;;;;1.40;0.90;;;13.10;99.90;;;;;;5010958;28;20078;-46
2023/10/26 10:41:01;;;;;;;1.40;1.00;;;13.10;99.90;;;;;;5010405;28;20029;-48
2023/10/26 10:43:31;;;;;;;0.73;0.73;;;13.10;99.90;;;;;;5010506;28;20029;-46
2023/10/26 10:46:09;;;;;;;1.35;0.88;;;13.10;99.90;;;;;;5008683;28;20026;-47
2023/10/26 10:48:35;;;;;;;1.17;0.90;;;13.10;99.90;;;;;;5009969;28;20029;-50
2023/10/26 10:51:00;;;;;;;1.20;1.00;;;13.10;99.90;;;;;;5010318;28;20021;-49
2023/10/26 10:53:29;;;;;;;2.28;0.93;;;13.00;99.90;;;;;;5009978;28;20022;-51
2023/10/26 10:55:54;;;;;;;3.03;0.98;;;13.00;99.90;;;;;;5009834;28;20030;-48
2023/10/26 10:58:20;;;;;;;0.90;0.90;;;13.00;99.90;;;;;;5009012;28;20439;-48
2023/10/26 11:00:48;;;;;;;2.90;0.95;;;13.10;99.90;;;;;;5009929;28;20057;-52
2023/10/26 11:03:32;;;;;;;2.28;1.20;;;13.20;99.90;;;;;;5009845;28;20481;-52
2023/10/26 11:05:58;;;;;;;4.32;1.20;;;13.50;99.90;;;;;;5009705;28;20550;-53
2023/10/26 11:08:24;;;;;;;2.13;1.10;;;13.40;99.90;;;;;;5014482;28;20034;-53
2023/10/26 11:10:51;;;;;;;2.50;2.30;;;13.40;99.90;;;;;;5009451;28;20022;-51
2023/10/26 11:13:21;;;;;;;3.28;2.40;;;13.50;99.90;;;;;;5010016;28;20155;-48
2023/10/26 11:15:46;;;;;;;4.68;2.60;;;13.50;99.90;;;;;;5009454;28;20076;-48
2023/10/26 11:18:12;;;;;;;3.20;2.85;;;13.40;99.90;;;;;;5009657;28;20054;-50
2023/10/26 11:20:40;;;;;;;3.45;2.53;;;13.40;99.90;;;;;;5009764;28;20468;-49
2023/10/26 11:23:07;;;;;;;2.72;2.50;;;13.50;99.90;;;;;;5009758;28;20038;-48
2023/10/26 11:25:33;;;;;;;2.85;2.65;;;13.40;99.90;;;;;;5009834;28;20068;-51
2023/10/26 11:27:59;;;;;;;3.00;2.70;;;13.40;99.90;;;;;;5077292;28;20023;-45
2023/10/26 11:30:25;;;;;;;6.00;2.60;;;13.40;99.90;;;;;;5092573;28;20401;-51
2023/10/26 11:32:50;;;;;;;3.50;3.20;;;13.40;99.90;;;;;;5009529;28;20025;-50
2023/10/26 11:35:16;;;;;;;3.08;2.65;;;13.40;99.90;;;;;;5009862;28;20485;-48
2023/10/26 11:37:44;;;;;;;3.40;2.47;;;13.50;99.90;;;;;;5009702;28;20026;-51
2023/10/26 11:40:14;;;;;;;6.43;2.65;;;13.40;99.90;;;;;;5009824;28;20371;-50
2023/10/26 11:42:56;;;;;;;5.00;3.30;;;13.50;99.90;;;;;;5009798;28;20026;-53
2023/10/26 11:45:25;;;;;;;4.10;3.42;;;13.50;99.90;;;;;;5009838;28;20247;-48
2023/10/26 11:47:56;;;;;;;32.63;19.48;;;13.50;99.90;;;;;;5009106;28;20041;-47
2023/10/26 11:50:24;;;;;;;7.47;4.88;;;13.50;99.90;;;;;;5009211;28;20018;-47
2023/10/26 11:52:50;;;;;;;4.55;4.10;;;13.50;99.90;;;;;;5009242;28;20022;-49
2023/10/26 11:55:17;;;;;;;4.05;3.45;;;13.40;99.90;;;;;;5009254;28;20495;-47
2023/10/26 11:57:43;;;;;;;8.07;3.80;;;13.30;99.90;;;;;;5009017;28;20037;-48
2023/10/26 12:00:10;;;;;;;5.03;3.63;;;13.30;99.90;;;;;;5008934;28;20496;-53
2023/10/26 12:02:35;;;;;;;4.82;4.13;;;13.20;99.90;;;;;;5009452;28;20026;-47
2023/10/26 12:05:02;;;;;;;5.13;4.20;;;13.10;99.90;;;;;;5009299;28;20026;-47
2023/10/26 12:07:28;;;;;;;7.28;3.95;;;13.10;99.90;;;;;;5009117;28;20304;-51
2023/10/26 12:09:54;;;;;;;9.45;4.35;;;13.00;99.90;;;;;;5008940;28;20108;-47
2023/10/26 12:12:19;;;;;;;4.97;3.88;;;12.90;99.90;;;;;;5008984;28;20026;-51
2023/10/26 12:14:47;;;;;;;5.10;4.15;;;12.90;99.90;;;;;;5008806;28;20018;-51
2023/10/26 12:17:12;;;;;;;5.65;4.18;;;12.90;99.90;;;;;;5008993;28;20489;-48
2023/10/26 12:19:38;;;;;;;6.40;4.82;;;12.90;99.90;;;;;;5007286;28;20037;-46
2023/10/26 12:22:03;;;;;;;10.65;4.40;;;13.00;99.90;;;;;;5005427;28;20034;-47
2023/10/26 12:24:29;;;;;;;7.93;4.60;;;13.10;99.90;;;;;;5008767;28;20155;-47
2023/10/26 12:26:57;;;;;;;5.13;4.25;;;13.20;99.90;;;;;;5008703;28;20049;-48
2023/10/26 12:29:23;;;;;;;4.88;4.47;;;13.20;99.90;;;;;;5008619;28;20075;-52
2023/10/26 12:31:49;;;;;;;5.30;4.18;;;13.40;99.90;;;;;;5008858;28;20052;-49
2023/10/26 12:34:14;;;;;;;7.45;5.13;;;13.40;99.90;;;;;;5008772;28;20057;-49
2023/10/26 12:36:40;;;;;;;4.82;4.43;;;13.50;99.90;;;;;;5008595;28;20607;-50
2023/10/26 12:39:05;;;;;;;7.53;5.22;;;13.50;99.90;;;;;;5008217;28;20030;-54
2023/10/26 12:41:31;;;;;;;5.80;4.28;;;13.60;99.90;;;;;;5008782;28;20086;-52
2023/10/26 12:43:56;;;;;;;6.00;4.68;;;13.60;99.90;;;;;;5008565;28;20366;-50
2023/10/26 12:46:22;;;;;;;5.35;4.85;;;13.60;99.90;;;;;;5008323;28;20037;-52